Main page
METAR-TAF:

METAR-TAF

Airports :

Koksijde Air Base

Koksijde, Belgium

latitude: 51-05N, longitude: 002-39E, elevation: 4 m

Current weather observation

The report was made 21 minutes ago, at 14:25 UTC
Wind 3 kt from the South/Southeast
Temperature 6°C
Humidity 42%
Pressure 1034 hPa
Visibility 10 km or more
Few clouds at a height of 30000 ft

METAR: EBFN 081425Z 15003KT 9999 FEW300 06/M06 Q1034 BLU BLU

Time: 15:46 (14:46 UTC)

Forecast

The report was made 3 hours and 5 minutes ago, at 11:41 UTC
Forecast valid from 08 at 13 UTC to 08 at 22 UTC
Wind 6 kt from the South
Visibility 10 km or more
Clear sky

TAF: EBFN 081141Z 0813/0822 18006KT 9999 SKC

Weather observations and forecasts of more than 4000 airports (METAR and TAF reports).

The available stations are represented by yellow and red dots on the map.

Hover mouse over dot to see the name of the station.

Then click to see weather observations and forecasts.

To change the map : click on the green buttons with a black cross to zoom in, on the green button with a dash to zoom out, or on the green arrows for adjacent maps.


METAR-TAF: